createdAt,value
2022-08-03T00:00:05.677Z,45.76
2022-08-03T00:01:05.647Z,46.41
2022-08-03T00:02:05.652Z,52.37
2022-08-03T00:03:05.675Z,40.28
2022-08-03T00:04:05.625Z,40.44
2022-08-03T00:05:05.615Z,45.76
2022-08-03T00:06:05.605Z,41.73
2022-08-03T00:07:05.612Z,40.77
2022-08-03T00:08:05.582Z,39.64
2022-08-03T00:09:05.574Z,40.44
2022-08-03T00:10:05.554Z,39.64
2022-08-03T00:11:05.559Z,40.77
2022-08-03T00:12:05.560Z,48.50
2022-08-03T00:13:05.529Z,47.53
2022-08-03T00:14:05.527Z,49.31
2022-08-03T00:15:09.504Z,43.67
2022-08-03T00:16:06.500Z,41.41
2022-08-03T00:17:05.489Z,40.28
2022-08-03T00:18:05.524Z,45.12
2022-08-03T00:19:05.468Z,40.77
2022-08-03T00:20:05.451Z,46.41
2022-08-03T00:21:06.448Z,43.67
2022-08-03T00:22:05.450Z,40.93
2022-08-03T00:23:05.450Z,41.41
2022-08-03T00:24:05.423Z,42.38
2022-08-03T00:25:05.397Z,46.89
2022-08-03T00:26:38.320Z,45.76
2022-08-03T00:27:05.386Z,44.31
2022-08-03T00:28:05.381Z,40.61
2022-08-03T00:29:05.359Z,39.64
2022-08-03T00:30:05.358Z,41.89
2022-08-03T00:31:05.347Z,40.44
2022-08-03T00:32:05.361Z,44.79
2022-08-03T00:33:05.329Z,41.89
2022-08-03T00:34:06.028Z,46.89
2022-08-03T00:35:08.067Z,41.25
2022-08-03T00:36:05.298Z,44.79
2022-08-03T00:37:05.311Z,41.89
2022-08-03T00:38:05.289Z,42.22
2022-08-03T00:39:05.272Z,45.60
2022-08-03T00:40:05.541Z,41.25
2022-08-03T00:41:05.247Z,40.93
2022-08-03T00:42:05.239Z,41.57
2022-08-03T00:43:05.248Z,40.28
2022-08-03T00:44:05.219Z,40.93
2022-08-03T00:45:06.216Z,41.25
2022-08-03T00:46:05.200Z,40.12
2022-08-03T00:47:05.203Z,40.93
2022-08-03T00:48:05.221Z,41.89
2022-08-03T00:49:05.233Z,41.41
2022-08-03T00:50:05.159Z,40.61
2022-08-03T00:51:05.153Z,41.25
2022-08-03T00:52:09.703Z,41.89
2022-08-03T00:53:05.150Z,42.70
2022-08-03T00:54:05.145Z,44.15
2022-08-03T00:55:05.131Z,40.28
2022-08-03T00:56:05.106Z,42.54
2022-08-03T00:57:05.098Z,42.54
2022-08-03T00:58:05.080Z,44.63
2022-08-03T00:59:05.115Z,41.09
2022-08-03T01:00:05.065Z,41.25
2022-08-03T01:01:05.097Z,41.41
2022-08-03T01:02:05.049Z,42.38
2022-08-03T01:03:05.042Z,42.22
2022-08-03T01:04:05.052Z,43.83
2022-08-03T01:05:05.028Z,42.38
2022-08-03T01:06:05.027Z,43.83
2022-08-03T01:07:05.025Z,41.41
2022-08-03T01:08:04.994Z,40.28
2022-08-03T01:09:04.977Z,39.16
2022-08-03T01:10:05.975Z,44.47
2022-08-03T01:11:04.990Z,42.38
2022-08-03T01:12:04.955Z,42.70
2022-08-03T01:13:04.946Z,40.28
2022-08-03T01:14:18.319Z,43.18
2022-08-03T01:15:06.926Z,40.93
2022-08-03T01:16:04.918Z,42.06
2022-08-03T01:17:04.937Z,40.28
2022-08-03T01:18:04.901Z,40.44
2022-08-03T01:19:04.882Z,48.66
2022-08-03T01:20:04.876Z,41.89
2022-08-03T01:21:04.910Z,42.70
2022-08-03T01:22:04.854Z,40.61
2022-08-03T01:23:04.853Z,42.06
2022-08-03T01:24:04.840Z,43.51
2022-08-03T01:25:04.840Z,42.22
2022-08-03T01:26:04.844Z,40.28
2022-08-03T01:27:04.825Z,43.51
2022-08-03T01:28:04.818Z,40.61
2022-08-03T01:29:04.793Z,40.93
2022-08-03T01:30:04.780Z,50.27
2022-08-03T01:31:04.773Z,41.73
2022-08-03T01:33:03.165Z,41.25
2022-08-03T01:33:06.014Z,46.08
2022-08-03T01:34:04.762Z,44.63
2022-08-03T01:35:04.733Z,40.61
2022-08-03T01:36:04.733Z,43.18
2022-08-03T01:37:04.712Z,43.99
2022-08-03T01:38:04.720Z,42.54
2022-08-03T01:39:04.685Z,42.06
2022-08-03T01:40:04.681Z,41.09
2022-08-03T01:41:04.686Z,44.63
2022-08-03T01:42:04.658Z,45.60
2022-08-03T01:43:04.666Z,41.89
2022-08-03T01:44:29.159Z,44.96
2022-08-03T01:45:05.632Z,42.54
2022-08-03T01:46:05.638Z,40.28
2022-08-03T01:47:04.629Z,41.57
2022-08-03T01:48:04.599Z,41.09
2022-08-03T01:49:08.974Z,44.31
2022-08-03T01:50:04.581Z,41.09
2022-08-03T01:51:04.581Z,40.44
2022-08-03T01:52:05.508Z,45.44
2022-08-03T01:53:04.546Z,43.99
2022-08-03T01:54:04.571Z,40.28
2022-08-03T01:55:04.533Z,40.61
2022-08-03T01:56:04.532Z,41.89
2022-08-03T01:57:04.507Z,42.54
2022-08-03T01:58:06.589Z,43.67
2022-08-03T01:59:04.523Z,41.25
2022-08-03T02:00:04.478Z,40.61
2022-08-03T02:01:04.494Z,41.09
2022-08-03T02:02:32.023Z,41.25
2022-08-03T02:03:05.454Z,40.77
2022-08-03T02:04:04.436Z,41.09
2022-08-03T02:05:04.447Z,44.31
2022-08-03T02:07:02.188Z,46.41
2022-08-03T02:07:06.413Z,43.83
2022-08-03T02:08:04.414Z,41.57
2022-08-03T02:09:04.392Z,42.86
2022-08-03T02:10:04.409Z,42.54
2022-08-03T02:11:04.367Z,41.57
2022-08-03T02:12:04.369Z,45.60
2022-08-03T02:13:04.392Z,43.83
2022-08-03T02:14:04.341Z,45.28
2022-08-03T02:15:04.359Z,46.73
2022-08-03T02:16:04.327Z,43.02
2022-08-03T02:17:04.312Z,41.89
2022-08-03T02:18:04.308Z,41.25
2022-08-03T02:19:04.297Z,41.89
2022-08-03T02:20:04.306Z,42.06
2022-08-03T02:21:10.874Z,44.63
2022-08-03T02:22:05.280Z,46.25
2022-08-03T02:23:04.250Z,43.51
2022-08-03T02:24:04.251Z,41.09
2022-08-03T02:25:04.252Z,41.41
2022-08-03T02:26:04.225Z,41.41
2022-08-03T02:27:04.217Z,41.41
2022-08-03T02:28:04.235Z,41.41
2022-08-03T02:29:04.212Z,43.67
2022-08-03T02:30:04.189Z,45.92
2022-08-03T02:31:04.179Z,41.57
2022-08-03T02:32:04.164Z,43.34
2022-08-03T02:33:04.177Z,43.83
2022-08-03T02:34:04.155Z,43.34
2022-08-03T02:35:04.138Z,43.34
2022-08-03T02:36:04.133Z,43.02
2022-08-03T02:37:04.118Z,47.37
2022-08-03T02:38:04.102Z,48.66
2022-08-03T02:39:04.122Z,44.96
2022-08-03T02:40:04.082Z,42.06
2022-08-03T02:41:04.082Z,42.54
2022-08-03T02:42:04.065Z,42.70
2022-08-03T02:43:04.067Z,44.15
2022-08-03T02:44:06.084Z,42.54
2022-08-03T02:45:04.023Z,43.02
2022-08-03T02:46:04.026Z,42.86
2022-08-03T02:47:04.027Z,43.51
2022-08-03T02:48:04.022Z,43.02
2022-08-03T02:49:40.996Z,45.28
2022-08-03T02:50:05.014Z,44.96
2022-08-03T02:51:03.982Z,44.96
2022-08-03T02:52:03.991Z,46.73
2022-08-03T02:53:03.987Z,48.02
2022-08-03T02:54:03.950Z,45.44
2022-08-03T02:55:03.938Z,47.70
2022-08-03T02:56:03.924Z,44.31
2022-08-03T02:57:03.918Z,51.40
2022-08-03T02:58:03.937Z,47.05
2022-08-03T02:59:03.903Z,44.96
2022-08-03T03:00:03.893Z,46.57
2022-08-03T03:01:03.972Z,48.34
2022-08-03T03:02:03.887Z,48.18
2022-08-03T03:03:03.890Z,48.50
2022-08-03T03:04:03.864Z,48.98
2022-08-03T03:05:54.338Z,46.57
2022-08-03T03:06:05.799Z,49.15
2022-08-03T03:07:04.491Z,43.67
2022-08-03T03:08:03.823Z,44.63
2022-08-03T03:09:04.831Z,48.66
2022-08-03T03:10:03.821Z,46.57
2022-08-03T03:11:03.779Z,48.34
2022-08-03T03:12:03.830Z,49.31
2022-08-03T03:13:03.759Z,50.11
2022-08-03T03:14:03.747Z,48.50
2022-08-03T03:15:03.740Z,49.63
2022-08-03T03:16:03.763Z,53.33
2022-08-03T03:17:03.728Z,52.85
2022-08-03T03:18:03.710Z,51.40
2022-08-03T03:19:03.702Z,52.21
2022-08-03T03:20:03.700Z,52.69
2022-08-03T03:21:03.720Z,50.60
2022-08-03T03:22:03.688Z,50.76
2022-08-03T03:23:03.680Z,50.43
2022-08-03T03:24:03.695Z,52.69
2022-08-03T03:25:03.641Z,50.76
2022-08-03T03:26:03.635Z,49.15
2022-08-03T03:27:03.626Z,51.72
2022-08-03T03:28:03.618Z,50.11
2022-08-03T03:29:03.625Z,48.66
2022-08-03T03:30:03.591Z,49.15
2022-08-03T03:31:03.594Z,50.11
2022-08-03T03:32:03.583Z,52.37
2022-08-03T03:33:03.582Z,52.53
2022-08-03T03:34:03.586Z,51.56
2022-08-03T03:35:03.558Z,56.56
2022-08-03T03:36:03.538Z,49.63
2022-08-03T03:37:03.533Z,49.95
2022-08-03T03:38:03.544Z,48.50
2022-08-03T03:39:15.094Z,51.08
2022-08-03T03:40:04.500Z,49.95
2022-08-03T03:41:03.493Z,52.53
2022-08-03T03:42:03.484Z,51.08
2022-08-03T03:43:03.484Z,53.66
2022-08-03T03:44:03.462Z,52.37
2022-08-03T03:45:03.452Z,51.88
2022-08-03T03:46:03.467Z,49.31
2022-08-03T03:47:03.429Z,53.50
2022-08-03T03:48:03.424Z,50.43
2022-08-03T03:49:03.450Z,50.60
2022-08-03T03:50:03.402Z,51.88
2022-08-03T03:51:03.399Z,48.98
2022-08-03T03:52:03.399Z,49.63
2022-08-03T03:53:03.365Z,51.08
2022-08-03T03:54:03.428Z,52.21
2022-08-03T03:55:03.369Z,48.18
2022-08-03T03:56:03.342Z,49.79
2022-08-03T03:57:03.330Z,51.88
2022-08-03T03:58:03.319Z,51.40
2022-08-03T03:59:03.306Z,51.40
2022-08-03T04:00:03.316Z,52.05
2022-08-03T04:01:03.392Z,54.95
2022-08-03T04:02:03.286Z,47.53
2022-08-03T04:03:03.281Z,50.92
2022-08-03T04:04:03.259Z,54.95
2022-08-03T04:05:03.255Z,51.56
2022-08-03T04:06:03.257Z,53.01
2022-08-03T04:07:03.224Z,51.56
2022-08-03T04:08:03.246Z,52.85
2022-08-03T04:09:03.224Z,51.88
2022-08-03T04:10:14.621Z,52.85
2022-08-03T04:11:04.192Z,53.01
2022-08-03T04:12:04.183Z,50.92
2022-08-03T04:13:03.195Z,50.27
2022-08-03T04:14:03.164Z,51.88
2022-08-03T04:15:03.158Z,52.37
2022-08-03T04:16:03.136Z,51.88
2022-08-03T04:17:03.140Z,52.05
2022-08-03T04:18:03.160Z,53.01
2022-08-03T04:19:03.112Z,54.46
2022-08-03T04:20:03.114Z,52.53
2022-08-03T04:21:03.094Z,54.46
2022-08-03T04:22:03.104Z,49.95
2022-08-03T04:23:03.078Z,50.60
2022-08-03T04:24:03.078Z,53.01
2022-08-03T04:25:03.084Z,53.17
2022-08-03T04:26:03.056Z,52.05
2022-08-03T04:27:03.034Z,49.31
2022-08-03T04:28:30.028Z,50.60
2022-08-03T04:29:04.085Z,52.69
2022-08-03T04:30:03.024Z,50.60
2022-08-03T04:31:03.002Z,47.53
2022-08-03T04:32:03.173Z,47.05
2022-08-03T04:33:02.994Z,52.05
2022-08-03T04:34:02.967Z,53.01
2022-08-03T04:35:02.967Z,48.82
2022-08-03T04:36:03.827Z,50.43
2022-08-03T04:37:03.966Z,52.21
2022-08-03T04:38:02.933Z,53.17
2022-08-03T04:39:02.917Z,50.76
2022-08-03T04:40:02.921Z,50.76
2022-08-03T04:41:02.900Z,52.21
2022-08-03T04:42:08.034Z,51.24
2022-08-03T04:43:03.888Z,51.40
2022-08-03T04:44:02.876Z,49.47
2022-08-03T04:45:02.876Z,52.69
2022-08-03T04:46:02.873Z,50.27
2022-08-03T04:47:02.850Z,53.82
2022-08-03T04:48:03.115Z,51.72
2022-08-03T04:49:02.878Z,51.40
2022-08-03T04:50:02.825Z,50.27
2022-08-03T04:51:02.830Z,51.40
2022-08-03T04:52:02.800Z,52.53
2022-08-03T04:53:02.805Z,51.72
2022-08-03T04:54:02.780Z,49.79
2022-08-03T04:55:02.789Z,50.11
2022-08-03T04:56:03.762Z,50.92
2022-08-03T04:57:02.760Z,51.88
2022-08-03T04:58:02.759Z,50.27
2022-08-03T04:59:02.764Z,51.08
2022-08-03T05:00:03.706Z,48.82
2022-08-03T05:01:03.722Z,46.08
2022-08-03T05:02:02.767Z,50.60
2022-08-03T05:03:02.715Z,50.27
2022-08-03T05:04:02.704Z,50.60
2022-08-03T05:05:02.689Z,49.47
2022-08-03T05:06:09.691Z,49.79
2022-08-03T05:07:11.704Z,44.79
2022-08-03T05:08:03.493Z,47.53
2022-08-03T05:09:02.669Z,49.95
2022-08-03T05:10:03.351Z,50.76
2022-08-03T05:11:02.658Z,50.60
2022-08-03T05:12:02.642Z,49.63
2022-08-03T05:13:02.614Z,49.15
2022-08-03T05:14:02.600Z,50.11
2022-08-03T05:15:02.619Z,50.43
2022-08-03T05:16:02.588Z,49.31
2022-08-03T05:17:02.592Z,48.98
2022-08-03T05:18:02.567Z,51.72
2022-08-03T05:19:02.555Z,50.27
2022-08-03T05:20:02.557Z,49.79
2022-08-03T05:21:02.547Z,50.43
2022-08-03T05:22:02.550Z,48.50
2022-08-03T05:23:02.549Z,47.37
2022-08-03T05:24:02.522Z,49.79
2022-08-03T05:25:02.573Z,49.15
2022-08-03T05:26:02.507Z,50.11
2022-08-03T05:27:02.508Z,49.95
2022-08-03T05:28:02.479Z,49.63
2022-08-03T05:29:02.475Z,50.76
2022-08-03T05:30:29.722Z,48.50
2022-08-03T05:31:03.456Z,48.98
2022-08-03T05:32:07.748Z,51.56
2022-08-03T05:33:04.456Z,48.98
2022-08-03T05:34:02.427Z,51.08
2022-08-03T05:36:01.459Z,47.53
2022-08-03T05:36:04.386Z,49.95
2022-08-03T05:37:03.396Z,53.50
2022-08-03T05:38:02.397Z,48.18
2022-08-03T05:39:03.032Z,48.50
2022-08-03T05:40:03.370Z,51.24
2022-08-03T05:41:22.906Z,48.18
2022-08-03T05:42:03.379Z,48.34
2022-08-03T05:43:02.352Z,50.43
2022-08-03T05:44:02.345Z,49.15
2022-08-03T05:45:02.340Z,47.05
2022-08-03T05:46:11.956Z,48.18
2022-08-03T05:47:02.315Z,48.98
2022-08-03T05:48:02.312Z,48.34
2022-08-03T05:49:02.351Z,51.40
2022-08-03T05:50:02.292Z,49.79
2022-08-03T05:51:02.305Z,49.31
2022-08-03T05:52:21.146Z,48.34
2022-08-03T05:53:04.259Z,47.70
2022-08-03T05:54:02.268Z,48.50
2022-08-03T05:55:02.241Z,46.57
2022-08-03T05:56:03.559Z,47.05
2022-08-03T05:57:03.226Z,48.34
2022-08-03T05:58:02.226Z,47.86
2022-08-03T05:59:22.457Z,49.79
2022-08-03T06:00:04.221Z,48.50
2022-08-03T06:01:02.189Z,45.92
2022-08-03T06:02:02.244Z,44.96
2022-08-03T06:03:02.176Z,45.92
2022-08-03T06:04:02.169Z,46.89
2022-08-03T06:05:02.178Z,52.21
2022-08-03T06:06:02.151Z,47.05
2022-08-03T06:07:02.140Z,48.18
2022-08-03T06:08:02.132Z,48.18
2022-08-03T06:09:02.142Z,48.50
2022-08-03T06:10:36.858Z,48.50
2022-08-03T06:11:02.128Z,49.63
2022-08-03T06:12:02.116Z,45.44
2022-08-03T06:13:02.092Z,48.50
2022-08-03T06:14:02.081Z,48.34
2022-08-03T06:15:02.077Z,48.66
2022-08-03T06:16:02.083Z,49.15
2022-08-03T06:17:02.064Z,46.89
2022-08-03T06:18:02.385Z,46.08
2022-08-03T06:19:03.044Z,46.89
2022-08-03T06:20:02.032Z,44.31
2022-08-03T06:21:14.139Z,42.86
2022-08-03T06:22:03.014Z,46.73
2022-08-03T06:23:02.019Z,46.41
2022-08-03T06:24:02.568Z,48.34
2022-08-03T06:25:04.953Z,57.52
2022-08-03T06:26:05.629Z,55.75
2022-08-03T06:27:36.799Z,54.14
2022-08-03T06:28:01.959Z,50.27
2022-08-03T06:29:03.944Z,51.40
2022-08-03T06:30:01.950Z,51.40
2022-08-03T06:31:01.938Z,46.73
2022-08-03T06:32:01.935Z,45.12
2022-08-03T06:33:02.921Z,44.79
2022-08-03T06:34:32.576Z,49.31
2022-08-03T06:35:02.912Z,44.47
2022-08-03T06:36:01.901Z,48.18
2022-08-03T06:37:02.413Z,49.31
2022-08-03T06:38:01.921Z,47.21
2022-08-03T06:39:01.888Z,48.18
2022-08-03T06:40:01.894Z,47.70
2022-08-03T06:41:01.857Z,49.15
2022-08-03T06:42:01.844Z,48.82
2022-08-03T06:43:01.839Z,47.21
2022-08-03T06:44:03.364Z,49.31
2022-08-03T06:45:02.963Z,47.37
2022-08-03T06:46:01.818Z,46.89
2022-08-03T06:47:01.808Z,46.25
2022-08-03T06:48:01.806Z,48.34
2022-08-03T06:49:01.873Z,49.15
2022-08-03T06:50:12.845Z,46.41
2022-08-03T06:51:02.785Z,46.89
2022-08-03T06:52:05.570Z,47.37
2022-08-03T06:53:01.751Z,47.70
2022-08-03T06:54:01.747Z,46.08
2022-08-03T06:55:01.766Z,45.44
2022-08-03T06:56:01.726Z,48.98
2022-08-03T06:57:01.722Z,47.86
2022-08-03T06:58:03.264Z,46.73
2022-08-03T06:59:01.696Z,43.51
2022-08-03T07:00:08.446Z,46.41
2022-08-03T07:01:01.719Z,47.86
2022-08-03T07:02:01.684Z,46.57
2022-08-03T07:03:01.674Z,46.41
2022-08-03T07:04:01.667Z,46.08
2022-08-03T07:05:01.683Z,49.47
2022-08-03T07:06:01.640Z,48.66
2022-08-03T07:07:01.639Z,46.57
2022-08-03T07:08:01.643Z,48.50
2022-08-03T07:09:01.621Z,46.25
2022-08-03T07:10:02.228Z,46.89
2022-08-03T07:11:01.673Z,47.05
2022-08-03T07:12:01.598Z,47.37
2022-08-03T07:13:01.591Z,47.05
2022-08-03T07:14:01.580Z,46.57
2022-08-03T07:15:02.904Z,45.92
2022-08-03T07:16:02.580Z,46.57
2022-08-03T07:17:01.559Z,45.44
2022-08-03T07:18:01.541Z,47.86
2022-08-03T07:19:01.533Z,46.57
2022-08-03T07:20:01.613Z,47.53
2022-08-03T07:21:01.533Z,46.89
2022-08-03T07:22:02.323Z,47.37
2022-08-03T07:23:01.508Z,46.73
2022-08-03T07:24:01.495Z,46.25
2022-08-03T07:25:01.517Z,46.73
2022-08-03T07:26:01.487Z,48.50
2022-08-03T07:27:01.472Z,47.21
2022-08-03T07:28:01.458Z,43.51
2022-08-03T07:29:01.454Z,43.34
2022-08-03T07:30:01.447Z,48.50
2022-08-03T07:31:01.475Z,48.18
2022-08-03T07:32:01.425Z,43.83
2022-08-03T07:33:01.418Z,44.79
2022-08-03T07:34:01.441Z,46.25
2022-08-03T07:35:01.825Z,46.25
2022-08-03T07:36:01.428Z,47.86
2022-08-03T07:37:01.392Z,48.34
2022-08-03T07:38:01.387Z,47.37
2022-08-03T07:39:01.383Z,49.31
2022-08-03T07:40:02.359Z,44.96
2022-08-03T07:41:01.437Z,46.89
2022-08-03T07:42:01.360Z,48.02
2022-08-03T07:43:01.336Z,46.25
2022-08-03T07:44:01.343Z,48.50
2022-08-03T07:45:01.360Z,46.89
2022-08-03T07:46:01.313Z,47.70
2022-08-03T07:47:03.434Z,48.18
2022-08-03T07:48:01.298Z,48.34
2022-08-03T07:49:01.334Z,47.53
2022-08-03T07:50:01.281Z,49.31
2022-08-03T07:51:01.268Z,48.98
2022-08-03T07:52:01.281Z,44.96
2022-08-03T07:53:01.259Z,47.05
2022-08-03T07:54:01.264Z,48.18
2022-08-03T07:55:01.267Z,44.79
2022-08-03T07:56:01.233Z,47.37
2022-08-03T07:57:01.226Z,45.60
2022-08-03T07:58:01.238Z,47.53
2022-08-03T07:59:01.213Z,46.08
2022-08-03T08:00:02.485Z,46.73
2022-08-03T08:01:01.252Z,48.66
2022-08-03T08:02:01.186Z,43.34
2022-08-03T08:03:01.201Z,45.12
2022-08-03T08:04:01.178Z,48.02
2022-08-03T08:05:05.529Z,44.15
2022-08-03T08:06:02.159Z,45.12
2022-08-03T08:07:01.140Z,46.57
2022-08-03T08:08:01.161Z,47.05
2022-08-03T08:09:01.133Z,46.73
2022-08-03T08:10:01.111Z,47.05
2022-08-03T08:11:01.137Z,47.53
2022-08-03T08:12:01.109Z,46.57
2022-08-03T08:13:01.100Z,46.89
2022-08-03T08:14:01.086Z,46.41
2022-08-03T08:15:01.088Z,46.08
2022-08-03T08:16:01.098Z,46.57
2022-08-03T08:17:04.432Z,43.67
2022-08-03T08:18:02.052Z,43.99
2022-08-03T08:19:01.051Z,47.70
2022-08-03T08:20:01.043Z,47.37
2022-08-03T08:21:01.068Z,47.21
2022-08-03T08:22:02.390Z,44.96
2022-08-03T08:23:01.298Z,45.60
2022-08-03T08:24:01.012Z,43.99
2022-08-03T08:25:01.442Z,45.92
2022-08-03T08:26:01.002Z,46.73
2022-08-03T08:27:01.003Z,46.08
2022-08-03T08:28:30.056Z,43.02
2022-08-03T08:29:00.959Z,47.70
2022-08-03T08:30:10.407Z,44.96
2022-08-03T08:31:02.931Z,44.31
2022-08-03T08:32:00.960Z,45.92
2022-08-03T08:33:00.955Z,45.44
2022-08-03T08:34:03.917Z,46.57
2022-08-03T08:35:01.923Z,44.15
2022-08-03T08:36:00.906Z,43.18
2022-08-03T08:37:00.909Z,47.05
2022-08-03T08:38:04.172Z,44.96
2022-08-03T08:39:00.896Z,48.66
2022-08-03T08:40:00.874Z,46.25
2022-08-03T08:41:00.858Z,44.79
2022-08-03T08:42:00.857Z,48.34
2022-08-03T08:43:00.848Z,45.60
2022-08-03T08:44:00.870Z,47.37
2022-08-03T08:45:01.051Z,49.31
2022-08-03T08:46:00.825Z,46.57
2022-08-03T08:47:00.823Z,46.08
2022-08-03T08:48:04.414Z,44.31
2022-08-03T08:49:04.539Z,45.60
2022-08-03T08:50:09.691Z,50.43
2022-08-03T08:51:02.785Z,47.37
2022-08-03T08:52:01.676Z,46.08
2022-08-03T08:53:00.769Z,48.18
2022-08-03T08:54:00.784Z,44.31
2022-08-03T08:55:00.773Z,45.44
2022-08-03T08:56:01.328Z,45.44
2022-08-03T08:57:00.738Z,48.34
2022-08-03T08:58:00.717Z,45.76
2022-08-03T08:59:00.726Z,44.15
2022-08-03T09:00:00.730Z,46.57
2022-08-03T09:01:01.727Z,47.21
2022-08-03T09:02:00.697Z,45.92
2022-08-03T09:03:00.683Z,44.31
2022-08-03T09:04:00.672Z,45.44
2022-08-03T09:05:05.328Z,47.05
2022-08-03T09:06:02.671Z,45.76
2022-08-03T09:07:29.105Z,47.70
2022-08-03T09:08:02.627Z,47.37
2022-08-03T09:09:00.665Z,48.82
2022-08-03T09:10:11.258Z,46.73
2022-08-03T09:11:01.640Z,45.76
2022-08-03T09:12:20.032Z,45.28
2022-08-03T09:13:02.579Z,45.12
2022-08-03T09:14:00.576Z,46.08
2022-08-03T09:15:16.551Z,47.21
2022-08-03T09:16:02.598Z,45.60
2022-08-03T09:17:00.556Z,45.44
2022-08-03T09:18:00.531Z,45.76
2022-08-03T09:19:00.536Z,47.70
2022-08-03T09:20:03.143Z,48.18
2022-08-03T09:21:14.796Z,48.02
2022-08-03T09:22:02.543Z,46.89
2022-08-03T09:23:00.528Z,45.60
2022-08-03T09:24:03.776Z,46.08
2022-08-03T09:25:22.691Z,46.57
2022-08-03T09:26:02.484Z,45.60
2022-08-03T09:27:00.463Z,51.56
2022-08-03T09:28:00.473Z,47.21
2022-08-03T09:29:04.665Z,46.73
2022-08-03T09:30:02.432Z,42.86
2022-08-03T09:31:00.438Z,46.08
2022-08-03T09:32:00.451Z,48.18
2022-08-03T09:33:00.419Z,46.89
2022-08-03T09:34:00.404Z,46.41
2022-08-03T09:35:00.414Z,43.99
2022-08-03T09:36:00.393Z,44.96
2022-08-03T09:37:00.371Z,48.66
2022-08-03T09:38:11.192Z,44.96
2022-08-03T09:39:01.368Z,44.31
2022-08-03T09:40:00.366Z,44.31
2022-08-03T09:41:01.042Z,44.79
2022-08-03T09:42:00.335Z,46.89
2022-08-03T09:43:00.337Z,45.76
2022-08-03T09:44:00.316Z,47.86
2022-08-03T09:45:00.335Z,46.41
2022-08-03T09:46:00.303Z,42.86
2022-08-03T09:47:00.290Z,47.37
2022-08-03T09:48:00.272Z,44.79
2022-08-03T09:49:00.348Z,43.99
2022-08-03T09:50:00.261Z,47.05
2022-08-03T09:51:13.574Z,46.89
2022-08-03T09:52:30.114Z,45.76
2022-08-03T09:53:00.242Z,40.77
2022-08-03T09:54:00.554Z,48.98
2022-08-03T09:55:00.216Z,44.96
2022-08-03T09:56:36.146Z,44.47
2022-08-03T09:57:01.223Z,43.83
2022-08-03T09:58:00.184Z,46.41
2022-08-03T09:59:00.182Z,47.05
2022-08-03T10:00:04.619Z,44.15
2022-08-03T10:01:01.197Z,46.57
2022-08-03T10:02:00.171Z,48.66
2022-08-03T10:03:00.144Z,46.41
2022-08-03T10:04:04.418Z,44.31
2022-08-03T10:05:00.131Z,45.60
2022-08-03T10:06:00.286Z,46.08
2022-08-03T10:07:00.121Z,46.08
2022-08-03T10:08:00.104Z,46.41
2022-08-03T10:09:00.093Z,44.79
2022-08-03T10:10:29.322Z,42.70
2022-08-03T10:11:01.076Z,43.83
2022-08-03T10:12:00.072Z,45.60
2022-08-03T10:13:00.153Z,46.41
2022-08-03T10:14:01.317Z,43.18
2022-08-03T10:15:00.046Z,44.79
2022-08-03T10:16:22.766Z,46.73
2022-08-03T10:17:00.009Z,47.37
2022-08-03T10:18:00.032Z,44.63
2022-08-03T10:19:00.023Z,46.25
2022-08-03T10:19:59.998Z,45.76
2022-08-03T10:21:00.004Z,43.99
2022-08-03T10:21:59.990Z,44.31
2022-08-03T10:22:59.974Z,45.28
2022-08-03T10:23:59.982Z,43.67
2022-08-03T10:24:59.997Z,44.96
2022-08-03T10:25:59.948Z,45.12
2022-08-03T10:26:59.921Z,45.76
2022-08-03T10:27:59.956Z,43.67
2022-08-03T10:28:59.916Z,48.66
2022-08-03T10:29:59.962Z,42.38
2022-08-03T10:30:59.908Z,42.38
2022-08-03T10:31:59.943Z,46.89
2022-08-03T10:32:59.870Z,45.28
2022-08-03T10:33:59.883Z,44.47
2022-08-03T10:35:01.786Z,45.28
2022-08-03T10:35:59.862Z,44.15
2022-08-03T10:36:59.865Z,45.28
2022-08-03T10:37:59.821Z,47.05
2022-08-03T10:38:59.826Z,47.21
2022-08-03T10:39:59.807Z,46.41
2022-08-03T10:40:59.807Z,46.57
2022-08-03T10:42:02.548Z,47.05
2022-08-03T10:42:59.793Z,47.70
2022-08-03T10:43:59.795Z,46.25
2022-08-03T10:44:59.776Z,45.76
2022-08-03T10:45:59.759Z,43.99
2022-08-03T10:46:59.763Z,46.57
2022-08-03T10:47:59.776Z,44.47
2022-08-03T10:48:59.755Z,45.92
2022-08-03T10:49:59.739Z,45.76
2022-08-03T10:50:59.711Z,45.44
2022-08-03T10:51:59.699Z,46.57
2022-08-03T10:53:01.961Z,46.57
2022-08-03T10:53:59.699Z,43.83
2022-08-03T10:55:00.733Z,45.44
2022-08-03T10:55:59.673Z,44.79
2022-08-03T10:57:02.617Z,42.86
2022-08-03T10:58:00.650Z,42.54
2022-08-03T10:58:59.643Z,42.54
2022-08-03T10:59:59.664Z,44.96
2022-08-03T11:01:00.651Z,42.86
2022-08-03T11:02:01.067Z,43.02
2022-08-03T11:03:00.626Z,45.92
2022-08-03T11:03:59.588Z,45.60
2022-08-03T11:04:59.594Z,47.70
2022-08-03T11:05:59.609Z,42.22
2022-08-03T11:06:59.593Z,48.34
2022-08-03T11:07:59.556Z,47.05
2022-08-03T11:08:59.552Z,45.28
2022-08-03T11:09:59.542Z,47.53
2022-08-03T11:11:00.085Z,48.50
2022-08-03T11:11:59.554Z,46.89
2022-08-03T11:12:59.520Z,47.37
2022-08-03T11:13:59.526Z,47.21
2022-08-03T11:14:59.511Z,48.66
2022-08-03T11:16:01.729Z,42.70
2022-08-03T11:16:59.488Z,44.96
2022-08-03T11:17:59.472Z,43.34
2022-08-03T11:18:59.464Z,44.79
2022-08-03T11:19:59.484Z,43.51
2022-08-03T11:20:59.437Z,40.28
2022-08-03T11:21:59.446Z,43.67
2022-08-03T11:22:59.447Z,46.73
2022-08-03T11:24:05.593Z,44.79
2022-08-03T11:25:00.423Z,45.92
2022-08-03T11:25:59.455Z,45.60
2022-08-03T11:27:03.039Z,46.25
2022-08-03T11:27:59.379Z,46.73
2022-08-03T11:28:59.376Z,47.21
2022-08-03T11:29:59.361Z,47.70
2022-08-03T11:30:59.400Z,48.34
2022-08-03T11:31:59.345Z,46.73
2022-08-03T11:32:59.344Z,46.89
2022-08-03T11:33:59.322Z,46.25
2022-08-03T11:34:59.316Z,47.53
2022-08-03T11:35:59.306Z,47.70
2022-08-03T11:36:59.351Z,47.37
2022-08-03T11:38:03.263Z,47.37
2022-08-03T11:39:00.280Z,46.73
2022-08-03T11:39:59.274Z,48.50
2022-08-03T11:40:59.261Z,47.37
2022-08-03T11:41:59.270Z,48.82
2022-08-03T11:42:59.244Z,43.67
2022-08-03T11:43:59.225Z,45.28
2022-08-03T11:44:59.228Z,44.96
2022-08-03T11:45:59.224Z,46.73
2022-08-03T11:46:59.204Z,43.51
2022-08-03T11:47:59.230Z,44.31
2022-08-03T11:48:59.213Z,46.08
2022-08-03T11:49:59.245Z,45.60
2022-08-03T11:50:59.164Z,46.08
2022-08-03T11:51:59.163Z,45.92
2022-08-03T11:52:59.167Z,48.02
2022-08-03T11:53:59.139Z,47.70
2022-08-03T11:54:59.139Z,48.98
2022-08-03T11:55:59.124Z,50.11
2022-08-03T11:56:59.114Z,49.15
2022-08-03T11:59:01.153Z,47.70
2022-08-03T11:59:20.215Z,46.57
2022-08-03T12:00:01.103Z,44.47
2022-08-03T12:00:59.078Z,48.50
2022-08-03T12:01:59.074Z,48.50
2022-08-03T12:02:59.128Z,49.79
2022-08-03T12:03:59.053Z,48.02
2022-08-03T12:04:59.076Z,50.76
2022-08-03T12:05:59.049Z,48.50
2022-08-03T12:06:59.023Z,43.02
2022-08-03T12:08:03.642Z,44.31
2022-08-03T12:08:59.003Z,45.92
2022-08-03T12:09:58.991Z,44.79
2022-08-03T12:11:00.104Z,46.25
2022-08-03T12:12:00.674Z,45.60
2022-08-03T12:12:58.967Z,45.44
2022-08-03T12:14:50.840Z,49.63
2022-08-03T12:14:58.940Z,47.86
2022-08-03T12:15:58.998Z,49.47
2022-08-03T12:16:58.940Z,50.43
2022-08-03T12:17:58.940Z,46.08
2022-08-03T12:18:58.938Z,45.28
2022-08-03T12:19:58.906Z,45.92
2022-08-03T12:20:58.902Z,43.51
2022-08-03T12:21:58.884Z,45.60
2022-08-03T12:22:58.901Z,45.44
2022-08-03T12:23:58.873Z,43.99
2022-08-03T12:24:58.870Z,47.70
2022-08-03T12:25:58.845Z,45.60
2022-08-03T12:27:30.778Z,44.96
2022-08-03T12:27:58.832Z,46.25
2022-08-03T12:28:58.847Z,44.96
2022-08-03T12:29:59.262Z,43.51
2022-08-03T12:30:58.809Z,44.96
2022-08-03T12:31:58.805Z,48.02
2022-08-03T12:32:58.827Z,45.92
2022-08-03T12:33:59.314Z,45.28
2022-08-03T12:35:00.429Z,46.57
2022-08-03T12:35:58.774Z,43.67
2022-08-03T12:36:58.777Z,44.96
2022-08-03T12:37:58.754Z,42.86
2022-08-03T12:38:58.733Z,43.51
2022-08-03T12:40:02.763Z,43.51
2022-08-03T12:40:58.712Z,44.96
2022-08-03T12:41:58.707Z,45.60
2022-08-03T12:42:58.699Z,46.57
2022-08-03T12:43:58.713Z,45.92
2022-08-03T12:44:58.699Z,47.05
2022-08-03T12:46:06.622Z,49.31
2022-08-03T12:46:58.658Z,45.60
2022-08-03T12:47:58.689Z,45.92
2022-08-03T12:48:58.660Z,46.57
2022-08-03T12:49:58.634Z,46.25
2022-08-03T12:50:58.634Z,45.92
2022-08-03T12:52:00.020Z,48.18